Terminal Aerodrome Forecast
Issued by NWS Chicago, IL

Home | Current Version | Previous Version | Graphics & Text | Print | Product List | Glossary On
Versions: 1 2 3 4 5 6 7 8 9 10 11 12 13 14 15 16 17 18 19 20 21 22 23 24 25 26 27 28 29 30 31 32 33 34 35 36 37 38 39 40 41
000
FTUS43 KLOT 242329
TAFRFD
TAF
KRFD 242329Z 2500/2524 12012G18KT P6SM BKN250
     FM250200 13014KT P6SM -SHRA BKN045 OVC070 WS020/15040KT
     FM250400 16015G20KT 3SM -RA BR BKN010 OVC015 WS020/16050KT
     FM251000 21014KT 5SM BR VCSH BKN004 OVC015
     FM251300 24014G23KT P6SM SCT005 BKN015
     FM252200 26012KT P6SM SCT015 BKN100=

USA.gov is the U.S. government's official web portal to all federal, state and local government web resources and services.